sensor_id;sensor_type;location;lat;lon;timestamp;pressure;altitude;pressure_sealevel;temperature;humidity
46886;BME280;32622;48.202;11.326;2023-05-19T00:01:22;1025.21;;;4.01;46.70
46886;BME280;32622;48.202;11.326;2023-05-19T00:03:25;1024.85;;;5.18;45.20
46886;BME280;32622;48.202;11.326;2023-05-19T00:05:29;1024.92;;;4.81;45.50
46886;BME280;32622;48.202;11.326;2023-05-19T00:07:33;1024.85;;;5.04;45.39
46886;BME280;32622;48.202;11.326;2023-05-19T00:09:38;1024.83;;;4.99;45.43
46886;BME280;32622;48.202;11.326;2023-05-19T00:11:42;1024.96;;;4.40;46.58
46886;BME280;32622;48.202;11.326;2023-05-19T00:13:45;1025.06;;;3.81;47.25
46886;BME280;32622;48.202;11.326;2023-05-19T00:15:49;1024.88;;;4.48;46.36
46886;BME280;32622;48.202;11.326;2023-05-19T00:17:52;1025.14;;;3.37;50.05
46886;BME280;32622;48.202;11.326;2023-05-19T00:19:56;1025.11;;;3.61;50.32
46886;BME280;32622;48.202;11.326;2023-05-19T00:21:59;1025.11;;;3.56;49.48
46886;BME280;32622;48.202;11.326;2023-05-19T00:24:02;1024.93;;;4.29;48.18
46886;BME280;32622;48.202;11.326;2023-05-19T00:26:05;1025.00;;;4.11;48.38
46886;BME280;32622;48.202;11.326;2023-05-19T00:28:08;1025.17;;;3.39;49.45
46886;BME280;32622;48.202;11.326;2023-05-19T00:30:12;1024.92;;;4.32;48.38
46886;BME280;32622;48.202;11.326;2023-05-19T00:32:16;1024.73;;;4.98;47.36
46886;BME280;32622;48.202;11.326;2023-05-19T00:34:19;1024.83;;;4.71;47.40
46886;BME280;32622;48.202;11.326;2023-05-19T00:36:23;1025.17;;;3.25;49.82
46886;BME280;32622;48.202;11.326;2023-05-19T00:38:26;1024.97;;;3.98;49.38
46886;BME280;32622;48.202;11.326;2023-05-19T00:40:30;1024.95;;;4.01;48.54
46886;BME280;32622;48.202;11.326;2023-05-19T00:42:33;1025.03;;;3.67;50.04
46886;BME280;32622;48.202;11.326;2023-05-19T00:44:40;1024.89;;;4.07;48.78
46886;BME280;32622;48.202;11.326;2023-05-19T00:46:43;1024.98;;;3.72;50.26
46886;BME280;32622;48.202;11.326;2023-05-19T00:48:46;1025.11;;;3.07;50.84
46886;BME280;32622;48.202;11.326;2023-05-19T00:50:51;1024.76;;;4.32;47.64
46886;BME280;32622;48.202;11.326;2023-05-19T00:52:55;1024.39;;;5.70;44.74
46886;BME280;32622;48.202;11.326;2023-05-19T00:54:58;1024.60;;;4.80;45.03
46886;BME280;32622;48.202;11.326;2023-05-19T00:57:01;1024.55;;;4.94;45.76
46886;BME280;32622;48.202;11.326;2023-05-19T00:59:05;1024.97;;;3.16;49.73
46886;BME280;32622;48.202;11.326;2023-05-19T01:01:08;1024.56;;;4.59;46.46
46886;BME280;32622;48.202;11.326;2023-05-19T01:03:11;1024.75;;;3.86;47.32
46886;BME280;32622;48.202;11.326;2023-05-19T01:05:15;1024.32;;;5.58;45.22
46886;BME280;32622;48.202;11.326;2023-05-19T01:07:19;1024.69;;;4.22;46.90
46886;BME280;32622;48.202;11.326;2023-05-19T01:09:22;1024.38;;;5.32;45.39
46886;BME280;32622;48.202;11.326;2023-05-19T01:11:26;1024.57;;;4.56;46.46
46886;BME280;32622;48.202;11.326;2023-05-19T01:13:31;1024.76;;;3.80;47.51
46886;BME280;32622;48.202;11.326;2023-05-19T01:15:43;1024.72;;;3.91;47.21
46886;BME280;32622;48.202;11.326;2023-05-19T01:17:57;1024.93;;;3.21;49.46
46886;BME280;32622;48.202;11.326;2023-05-19T01:20:09;1024.76;;;3.89;48.34
46886;BME280;32622;48.202;11.326;2023-05-19T01:22:26;1024.24;;;5.97;45.02
46886;BME280;32622;48.202;11.326;2023-05-19T01:24:50;1025.08;;;2.81;50.04
46886;BME280;32622;48.202;11.326;2023-05-19T01:27:17;1024.87;;;3.72;48.83
46886;BME280;32622;48.202;11.326;2023-05-19T01:29:40;1024.73;;;4.37;47.12
46886;BME280;32622;48.202;11.326;2023-05-19T01:31:45;1024.90;;;3.64;49.09
46886;BME280;32622;48.202;11.326;2023-05-19T01:33:52;1024.81;;;3.89;48.20
46886;BME280;32622;48.202;11.326;2023-05-19T01:35:56;1024.94;;;3.59;49.15
46886;BME280;32622;48.202;11.326;2023-05-19T01:38:01;1025.01;;;2.98;49.45
46886;BME280;32622;48.202;11.326;2023-05-19T01:40:07;1025.11;;;2.88;50.40
46886;BME280;32622;48.202;11.326;2023-05-19T01:42:11;1024.99;;;3.20;49.68
46886;BME280;32622;48.202;11.326;2023-05-19T01:44:15;1024.81;;;3.92;47.91
46886;BME280;32622;48.202;11.326;2023-05-19T01:46:18;1024.87;;;3.70;48.29
46886;BME280;32622;48.202;11.326;2023-05-19T01:48:22;1024.80;;;3.88;47.24
46886;BME280;32622;48.202;11.326;2023-05-19T01:50:25;1024.81;;;3.86;48.10
46886;BME280;32622;48.202;11.326;2023-05-19T01:52:29;1024.77;;;4.17;46.85
46886;BME280;32622;48.202;11.326;2023-05-19T01:54:32;1024.75;;;4.20;47.03
46886;BME280;32622;48.202;11.326;2023-05-19T01:56:50;1025.00;;;3.43;48.51
46886;BME280;32622;48.202;11.326;2023-05-19T01:58:59;1024.99;;;3.45;48.59
46886;BME280;32622;48.202;11.326;2023-05-19T02:01:13;1024.96;;;3.51;48.71
46886;BME280;32622;48.202;11.326;2023-05-19T02:03:35;1024.39;;;5.80;44.59
46886;BME280;32622;48.202;11.326;2023-05-19T02:05:51;1024.46;;;5.50;44.36
46886;BME280;32622;48.202;11.326;2023-05-19T02:08:03;1024.67;;;4.56;45.37
46886;BME280;32622;48.202;11.326;2023-05-19T02:10:13;1024.80;;;3.82;45.96
46886;BME280;32622;48.202;11.326;2023-05-19T02:12:30;1024.54;;;4.91;44.75
46886;BME280;32622;48.202;11.326;2023-05-19T02:14:37;1024.31;;;5.93;43.53
46886;BME280;32622;48.202;11.326;2023-05-19T02:16:44;1024.34;;;5.67;43.72
46886;BME280;32622;48.202;11.326;2023-05-19T02:18:50;1024.48;;;4.97;44.39
46886;BME280;32622;48.202;11.326;2023-05-19T02:20:53;1024.26;;;5.86;42.64
46886;BME280;32622;48.202;11.326;2023-05-19T02:22:57;1024.20;;;6.08;42.44
46886;BME280;32622;48.202;11.326;2023-05-19T02:25:00;1024.45;;;5.19;43.55
46886;BME280;32622;48.202;11.326;2023-05-19T02:27:03;1024.08;;;6.52;41.76
46886;BME280;32622;48.202;11.326;2023-05-19T02:29:07;1024.52;;;4.92;43.46
46886;BME280;32622;48.202;11.326;2023-05-19T02:31:10;1024.70;;;3.99;45.86
46886;BME280;32622;48.202;11.326;2023-05-19T02:33:13;1024.38;;;5.49;44.35
46886;BME280;32622;48.202;11.326;2023-05-19T02:35:17;1024.20;;;6.05;42.04
46886;BME280;32622;48.202;11.326;2023-05-19T02:37:20;1024.25;;;5.88;41.92
46886;BME280;32622;48.202;11.326;2023-05-19T02:39:23;1024.06;;;6.49;41.83
46886;BME280;32622;48.202;11.326;2023-05-19T02:41:27;1024.23;;;5.76;42.18
46886;BME280;32622;48.202;11.326;2023-05-19T02:43:30;1024.04;;;6.35;41.63
46886;BME280;32622;48.202;11.326;2023-05-19T02:45:33;1024.41;;;4.97;43.04
46886;BME280;32622;48.202;11.326;2023-05-19T02:47:36;1024.33;;;5.25;43.53
46886;BME280;32622;48.202;11.326;2023-05-19T02:49:39;1024.10;;;5.94;42.77
46886;BME280;32622;48.202;11.326;2023-05-19T02:51:42;1024.37;;;4.91;43.35
46886;BME280;32622;48.202;11.326;2023-05-19T02:53:45;1024.59;;;3.98;45.98
46886;BME280;32622;48.202;11.326;2023-05-19T02:55:48;1024.29;;;5.35;44.22
46886;BME280;32622;48.202;11.326;2023-05-19T02:57:51;1024.18;;;5.74;43.73
46886;BME280;32622;48.202;11.326;2023-05-19T02:59:55;1024.16;;;5.80;43.61
46886;BME280;32622;48.202;11.326;2023-05-19T03:02:00;1024.16;;;5.79;43.32
46886;BME280;32622;48.202;11.326;2023-05-19T03:04:04;1024.40;;;4.60;45.26
46886;BME280;32622;48.202;11.326;2023-05-19T03:06:07;1024.43;;;4.38;45.51
46886;BME280;32622;48.202;11.326;2023-05-19T03:08:10;1024.34;;;4.56;45.86
46886;BME280;32622;48.202;11.326;2023-05-19T03:10:14;1024.21;;;5.17;44.57
46886;BME280;32622;48.202;11.326;2023-05-19T03:12:17;1024.15;;;5.48;43.92
46886;BME280;32622;48.202;11.326;2023-05-19T03:14:20;1024.10;;;5.53;44.20
46886;BME280;32622;48.202;11.326;2023-05-19T03:16:24;1023.94;;;5.89;42.36
46886;BME280;32622;48.202;11.326;2023-05-19T03:18:27;1023.91;;;5.89;42.59
46886;BME280;32622;48.202;11.326;2023-05-19T03:20:31;1023.64;;;6.96;41.29
46886;BME280;32622;48.202;11.326;2023-05-19T03:22:35;1024.13;;;5.09;43.49
46886;BME280;32622;48.202;11.326;2023-05-19T03:24:38;1023.71;;;6.68;41.30
46886;BME280;32622;48.202;11.326;2023-05-19T03:26:41;1024.27;;;4.61;44.79
46886;BME280;32622;48.202;11.326;2023-05-19T03:28:44;1024.21;;;4.76;45.21
46886;BME280;32622;48.202;11.326;2023-05-19T03:30:47;1024.12;;;5.16;44.04
46886;BME280;32622;48.202;11.326;2023-05-19T03:32:51;1023.94;;;5.82;43.84
46886;BME280;32622;48.202;11.326;2023-05-19T03:34:54;1024.11;;;5.22;43.74
46886;BME280;32622;48.202;11.326;2023-05-19T03:36:57;1023.86;;;5.96;42.52
46886;BME280;32622;48.202;11.326;2023-05-19T03:39:00;1024.04;;;5.33;44.01
46886;BME280;32622;48.202;11.326;2023-05-19T03:41:04;1023.76;;;6.16;42.83
46886;BME280;32622;48.202;11.326;2023-05-19T03:43:07;1023.74;;;6.22;43.37
46886;BME280;32622;48.202;11.326;2023-05-19T03:45:11;1023.68;;;6.27;43.05
46886;BME280;32622;48.202;11.326;2023-05-19T03:47:15;1024.33;;;3.71;46.81
46886;BME280;32622;48.202;11.326;2023-05-19T03:49:18;1023.88;;;5.56;43.54
46886;BME280;32622;48.202;11.326;2023-05-19T03:51:21;1024.33;;;3.76;47.92
46886;BME280;32622;48.202;11.326;2023-05-19T03:53:24;1024.21;;;4.31;46.86
46886;BME280;32622;48.202;11.326;2023-05-19T03:55:27;1024.10;;;4.86;45.55
46886;BME280;32622;48.202;11.326;2023-05-19T03:57:30;1023.89;;;5.70;43.66
46886;BME280;32622;48.202;11.326;2023-05-19T03:59:33;1023.83;;;5.93;43.29
46886;BME280;32622;48.202;11.326;2023-05-19T04:01:36;1023.74;;;6.22;43.36
46886;BME280;32622;48.202;11.326;2023-05-19T04:03:39;1023.97;;;5.45;44.73
46886;BME280;32622;48.202;11.326;2023-05-19T04:05:42;1023.90;;;5.79;44.74
46886;BME280;32622;48.202;11.326;2023-05-19T04:07:45;1024.10;;;4.71;46.68
46886;BME280;32622;48.202;11.326;2023-05-19T04:09:49;1024.39;;;3.66;49.19
46886;BME280;32622;48.202;11.326;2023-05-19T04:11:52;1024.26;;;4.14;48.65
46886;BME280;32622;48.202;11.326;2023-05-19T04:13:57;1024.17;;;4.38;48.32
46886;BME280;32622;48.202;11.326;2023-05-19T04:16:00;1024.07;;;4.76;46.06
46886;BME280;32622;48.202;11.326;2023-05-19T04:18:03;1024.09;;;4.80;46.75
46886;BME280;32622;48.202;11.326;2023-05-19T04:20:07;1024.23;;;4.35;47.52
46886;BME280;32622;48.202;11.326;2023-05-19T04:22:11;1024.20;;;4.47;47.26
46886;BME280;32622;48.202;11.326;2023-05-19T04:24:15;1024.10;;;5.03;47.12
46886;BME280;32622;48.202;11.326;2023-05-19T04:26:18;1024.26;;;4.19;49.47
46886;BME280;32622;48.202;11.326;2023-05-19T04:28:21;1024.16;;;4.69;46.88
46886;BME280;32622;48.202;11.326;2023-05-19T04:30:25;1024.44;;;3.63;49.58
46886;BME280;32622;48.202;11.326;2023-05-19T04:32:28;1024.28;;;4.21;48.76
46886;BME280;32622;48.202;11.326;2023-05-19T04:34:31;1024.59;;;3.04;51.15
46886;BME280;32622;48.202;11.326;2023-05-19T04:36:34;1024.22;;;4.38;49.32
46886;BME280;32622;48.202;11.326;2023-05-19T04:38:37;1024.36;;;3.73;49.05
46886;BME280;32622;48.202;11.326;2023-05-19T04:40:41;1024.22;;;4.34;47.92
46886;BME280;32622;48.202;11.326;2023-05-19T04:42:44;1024.17;;;4.51;47.96
46886;BME280;32622;48.202;11.326;2023-05-19T04:44:47;1023.98;;;5.36;45.46
46886;BME280;32622;48.202;11.326;2023-05-19T04:46:50;1023.96;;;5.45;44.73
46886;BME280;32622;48.202;11.326;2023-05-19T04:48:53;1024.01;;;5.19;46.23
46886;BME280;32622;48.202;11.326;2023-05-19T04:51:05;1024.26;;;4.22;47.49
46886;BME280;32622;48.202;11.326;2023-05-19T04:53:10;1024.59;;;2.90;51.76
46886;BME280;32622;48.202;11.326;2023-05-19T04:55:13;1024.74;;;2.23;52.98
46886;BME280;32622;48.202;11.326;2023-05-19T04:57:17;1024.19;;;4.70;48.17
46886;BME280;32622;48.202;11.326;2023-05-19T04:59:21;1024.49;;;3.57;50.99
46886;BME280;32622;48.202;11.326;2023-05-19T05:01:32;1024.36;;;3.83;50.80
46886;BME280;32622;48.202;11.326;2023-05-19T05:03:37;1024.30;;;4.27;49.32
46886;BME280;32622;48.202;11.326;2023-05-19T05:05:41;1024.27;;;4.04;50.65
46886;BME280;32622;48.202;11.326;2023-05-19T05:07:45;1024.59;;;2.73;52.24
46886;BME280;32622;48.202;11.326;2023-05-19T05:10:01;1024.57;;;2.36;53.04
46886;BME280;32622;48.202;11.326;2023-05-19T05:12:06;1024.02;;;4.61;49.29
46886;BME280;32622;48.202;11.326;2023-05-19T05:14:11;1024.03;;;4.69;48.23
46886;BME280;32622;48.202;11.326;2023-05-19T05:16:21;1024.32;;;3.39;51.27
46886;BME280;32622;48.202;11.326;2023-05-19T05:18:33;1024.39;;;3.25;51.76
46886;BME280;32622;48.202;11.326;2023-05-19T05:20:44;1024.62;;;2.35;55.24
46886;BME280;32622;48.202;11.326;2023-05-19T05:22:55;1024.46;;;2.73;55.26
46886;BME280;32622;48.202;11.326;2023-05-19T05:24:59;1024.18;;;3.63;51.84
46886;BME280;32622;48.202;11.326;2023-05-19T05:27:08;1024.37;;;3.15;53.57
46886;BME280;32622;48.202;11.326;2023-05-19T05:29:11;1024.29;;;3.33;52.45
46886;BME280;32622;48.202;11.326;2023-05-19T05:31:15;1024.14;;;3.88;50.67
46886;BME280;32622;48.202;11.326;2023-05-19T05:33:19;1023.90;;;5.16;49.31
46886;BME280;32622;48.202;11.326;2023-05-19T05:42:17;1024.09;;;4.67;56.86
46886;BME280;32622;48.202;11.326;2023-05-19T05:44:20;1024.52;;;2.67;55.73
46886;BME280;32622;48.202;11.326;2023-05-19T05:46:23;1024.44;;;3.36;52.86
46886;BME280;32622;48.202;11.326;2023-05-19T05:48:26;1024.07;;;4.73;50.69
46886;BME280;32622;48.202;11.326;2023-05-19T05:50:30;1024.20;;;4.32;50.08
46886;BME280;32622;48.202;11.326;2023-05-19T05:52:35;1024.10;;;4.62;49.36
46886;BME280;32622;48.202;11.326;2023-05-19T05:54:39;1024.48;;;3.32;52.49
46886;BME280;32622;48.202;11.326;2023-05-19T05:56:43;1024.10;;;4.50;51.09
46886;BME280;32622;48.202;11.326;2023-05-19T05:58:46;1023.91;;;5.44;47.31
46886;BME280;32622;48.202;11.326;2023-05-19T06:00:50;1024.15;;;4.32;50.09
46886;BME280;32622;48.202;11.326;2023-05-19T06:02:53;1024.41;;;3.56;52.61
46886;BME280;32622;48.202;11.326;2023-05-19T06:04:57;1024.60;;;2.53;54.63
46886;BME280;32622;48.202;11.326;2023-05-19T06:07:00;1024.20;;;3.98;51.50
46886;BME280;32622;48.202;11.326;2023-05-19T06:09:03;1024.28;;;3.50;52.40
46886;BME280;32622;48.202;11.326;2023-05-19T06:11:07;1024.23;;;4.04;51.00
46886;BME280;32622;48.202;11.326;2023-05-19T06:13:10;1024.12;;;4.56;51.28
46886;BME280;32622;48.202;11.326;2023-05-19T06:15:13;1024.45;;;3.43;52.20
46886;BME280;32622;48.202;11.326;2023-05-19T06:17:17;1024.18;;;4.31;50.55
46886;BME280;32622;48.202;11.326;2023-05-19T06:19:20;1024.18;;;4.04;51.13
46886;BME280;32622;48.202;11.326;2023-05-19T06:21:24;1024.41;;;3.30;52.32
46886;BME280;32622;48.202;11.326;2023-05-19T06:23:29;1024.50;;;2.85;54.99
46886;BME280;32622;48.202;11.326;2023-05-19T06:25:32;1024.13;;;3.99;52.60
46886;BME280;32622;48.202;11.326;2023-05-19T06:27:35;1023.98;;;4.58;50.58
46886;BME280;32622;48.202;11.326;2023-05-19T06:29:38;1024.10;;;4.34;50.38
46886;BME280;32622;48.202;11.326;2023-05-19T06:31:41;1023.80;;;5.51;47.76
46886;BME280;32622;48.202;11.326;2023-05-19T06:33:44;1023.71;;;5.62;47.26
46886;BME280;32622;48.202;11.326;2023-05-19T06:35:47;1023.37;;;6.83;45.99
46886;BME280;32622;48.202;11.326;2023-05-19T06:37:50;1023.40;;;6.77;44.72
46886;BME280;32622;48.202;11.326;2023-05-19T06:39:54;1023.31;;;7.12;43.64
46886;BME280;32622;48.202;11.326;2023-05-19T06:41:57;1023.94;;;4.71;48.66
46886;BME280;32622;48.202;11.326;2023-05-19T06:44:00;1023.57;;;6.06;46.39
46886;BME280;32622;48.202;11.326;2023-05-19T06:46:04;1023.59;;;6.10;46.20
46886;BME280;32622;48.202;11.326;2023-05-19T06:48:07;1023.84;;;5.42;46.35
46886;BME280;32622;48.202;11.326;2023-05-19T06:50:11;1023.82;;;5.71;45.52
46886;BME280;32622;48.202;11.326;2023-05-19T06:52:20;1023.87;;;5.72;45.57
46886;BME280;32622;48.202;11.326;2023-05-19T06:54:27;1024.03;;;5.03;46.09
46886;BME280;32622;48.202;11.326;2023-05-19T06:56:30;1023.43;;;7.11;43.68
46886;BME280;32622;48.202;11.326;2023-05-19T06:58:32;1023.44;;;7.09;42.49
46886;BME280;32622;48.202;11.326;2023-05-19T07:03:26;1022.60;;;10.89;41.29
46886;BME280;32622;48.202;11.326;2023-05-19T07:05:31;1024.09;;;4.87;46.44
46886;BME280;32622;48.202;11.326;2023-05-19T07:07:53;1023.77;;;6.21;45.16
46886;BME280;32622;48.202;11.326;2023-05-19T07:34:47;1023.38;;;7.64;42.55
46886;BME280;32622;48.202;11.326;2023-05-19T07:37:48;1023.60;;;6.46;43.78
46886;BME280;32622;48.202;11.326;2023-05-19T07:39:51;1023.71;;;6.18;44.99
46886;BME280;32622;48.202;11.326;2023-05-19T07:41:55;1023.78;;;5.85;45.14
46886;BME280;32622;48.202;11.326;2023-05-19T07:46:47;1023.53;;;6.61;43.90
46886;BME280;32622;48.202;11.326;2023-05-19T07:48:50;1023.23;;;8.19;41.01
46886;BME280;32622;48.202;11.326;2023-05-19T07:50:55;1023.48;;;7.07;42.53
46886;BME280;32622;48.202;11.326;2023-05-19T07:53:22;1023.81;;;5.83;45.30
46886;BME280;32622;48.202;11.326;2023-05-19T07:58:05;1023.50;;;6.90;43.44
46886;BME280;32622;48.202;11.326;2023-05-19T08:00:09;1023.35;;;7.43;41.45
46886;BME280;32622;48.202;11.326;2023-05-19T08:02:12;1023.16;;;8.14;40.60
46886;BME280;32622;48.202;11.326;2023-05-19T08:04:15;1023.25;;;7.63;39.73
46886;BME280;32622;48.202;11.326;2023-05-19T08:06:17;1023.64;;;6.25;43.53
46886;BME280;32622;48.202;11.326;2023-05-19T08:08:20;1023.39;;;7.07;42.26
46886;BME280;32622;48.202;11.326;2023-05-19T08:10:22;1023.39;;;7.05;42.13
46886;BME280;32622;48.202;11.326;2023-05-19T08:12:29;1023.25;;;7.68;41.86
46886;BME280;32622;48.202;11.326;2023-05-19T08:14:33;1023.79;;;5.67;44.18
46886;BME280;32622;48.202;11.326;2023-05-19T08:16:36;1023.61;;;6.48;44.08
46886;BME280;32622;48.202;11.326;2023-05-19T08:18:38;1023.83;;;5.55;45.69
46886;BME280;32622;48.202;11.326;2023-05-19T08:20:41;1023.71;;;5.87;44.28
46886;BME280;32622;48.202;11.326;2023-05-19T08:22:43;1023.31;;;7.40;41.59
46886;BME280;32622;48.202;11.326;2023-05-19T08:24:45;1023.18;;;7.94;40.56
46886;BME280;32622;48.202;11.326;2023-05-19T08:26:48;1023.69;;;6.20;42.75
46886;BME280;32622;48.202;11.326;2023-05-19T08:28:50;1023.61;;;6.26;43.98
46886;BME280;32622;48.202;11.326;2023-05-19T08:30:53;1023.53;;;6.75;43.62
46886;BME280;32622;48.202;11.326;2023-05-19T08:32:55;1023.55;;;6.36;43.91
46886;BME280;32622;48.202;11.326;2023-05-19T08:34:58;1023.38;;;7.08;42.28
46886;BME280;32622;48.202;11.326;2023-05-19T08:37:00;1023.50;;;6.34;44.15
46886;BME280;32622;48.202;11.326;2023-05-19T08:42:57;1023.00;;;8.92;45.12
46886;BME280;32622;48.202;11.326;2023-05-19T08:45:01;1023.86;;;5.13;46.50
46886;BME280;32622;48.202;11.326;2023-05-19T08:47:05;1023.71;;;5.50;45.06
46886;BME280;32622;48.202;11.326;2023-05-19T08:49:11;1023.48;;;6.27;44.08
46886;BME280;32622;48.202;11.326;2023-05-19T08:51:22;1023.54;;;6.20;44.04
46886;BME280;32622;48.202;11.326;2023-05-19T08:53:35;1023.64;;;6.00;44.80
46886;BME280;32622;48.202;11.326;2023-05-19T08:55:43;1023.36;;;6.67;43.88
46886;BME280;32622;48.202;11.326;2023-05-19T08:57:49;1023.31;;;7.04;42.48
46886;BME280;32622;48.202;11.326;2023-05-19T08:59:53;1023.27;;;7.12;42.27
46886;BME280;32622;48.202;11.326;2023-05-19T09:01:58;1023.67;;;5.61;44.02
46886;BME280;32622;48.202;11.326;2023-05-19T09:04:02;1023.44;;;6.43;42.43
46886;BME280;32622;48.202;11.326;2023-05-19T09:06:06;1023.48;;;6.33;42.61
46886;BME280;32622;48.202;11.326;2023-05-19T09:08:09;1023.65;;;5.82;44.10
46886;BME280;32622;48.202;11.326;2023-05-19T09:10:12;1023.08;;;7.75;40.60
46886;BME280;32622;48.202;11.326;2023-05-19T09:12:16;1023.03;;;8.01;40.24
46886;BME280;32622;48.202;11.326;2023-05-19T09:14:19;1023.35;;;6.81;41.25
46886;BME280;32622;48.202;11.326;2023-05-19T09:16:22;1023.42;;;6.51;41.83
46886;BME280;32622;48.202;11.326;2023-05-19T09:18:26;1023.65;;;5.63;45.11
46886;BME280;32622;48.202;11.326;2023-05-19T09:20:30;1023.20;;;7.13;42.26
46886;BME280;32622;48.202;11.326;2023-05-19T09:22:33;1023.24;;;6.88;42.20
46886;BME280;32622;48.202;11.326;2023-05-19T09:24:43;1023.21;;;7.09;42.48
46886;BME280;32622;48.202;11.326;2023-05-19T09:26:46;1023.45;;;6.10;43.47
46886;BME280;32622;48.202;11.326;2023-05-19T09:28:49;1023.44;;;6.09;44.34
46886;BME280;32622;48.202;11.326;2023-05-19T09:31:00;1023.60;;;5.44;46.82
46886;BME280;32622;48.202;11.326;2023-05-19T09:33:04;1023.38;;;6.40;44.43
46886;BME280;32622;48.202;11.326;2023-05-19T09:35:08;1023.34;;;6.64;43.36
46886;BME280;32622;48.202;11.326;2023-05-19T09:37:12;1023.35;;;6.60;44.74
46886;BME280;32622;48.202;11.326;2023-05-19T09:39:17;1023.64;;;5.50;45.96
46886;BME280;32622;48.202;11.326;2023-05-19T09:41:20;1023.50;;;6.11;44.87
46886;BME280;32622;48.202;11.326;2023-05-19T09:43:32;1023.44;;;6.17;43.85
46886;BME280;32622;48.202;11.326;2023-05-19T09:45:35;1023.38;;;6.48;42.26
46886;BME280;32622;48.202;11.326;2023-05-19T09:47:40;1023.22;;;6.94;43.07
46886;BME280;32622;48.202;11.326;2023-05-19T09:49:46;1023.28;;;6.66;42.19
46886;BME280;32622;48.202;11.326;2023-05-19T09:51:49;1022.96;;;7.94;40.24
46886;BME280;32622;48.202;11.326;2023-05-19T09:53:53;1022.80;;;8.48;39.62
46886;BME280;32622;48.202;11.326;2023-05-19T09:56:20;1022.98;;;7.73;39.56
46886;BME280;32622;48.202;11.326;2023-05-19T09:58:23;1022.72;;;8.54;38.83
46886;BME280;32622;48.202;11.326;2023-05-19T10:00:41;1022.74;;;8.58;39.92
46886;BME280;32622;48.202;11.326;2023-05-19T10:03:16;1023.09;;;7.11;41.27
46886;BME280;32622;48.202;11.326;2023-05-19T10:05:19;1023.22;;;6.32;42.77
46886;BME280;32622;48.202;11.326;2023-05-19T10:07:32;1022.75;;;8.24;40.43
46886;BME280;32622;48.202;11.326;2023-05-19T10:10:27;1022.56;;;9.32;40.49
46886;BME280;32622;48.202;11.326;2023-05-19T10:15:50;1022.41;;;10.21;41.20
46886;BME280;32622;48.202;11.326;2023-05-19T10:23:29;1022.43;;;10.08;42.46
46886;BME280;32622;48.202;11.326;2023-05-19T10:25:40;1023.07;;;7.11;42.32
46886;BME280;32622;48.202;11.326;2023-05-19T13:00:46;1022.15;;;9.83;40.60
46886;BME280;32622;48.202;11.326;2023-05-19T13:01:03;1022.22;;;9.57;40.14
46886;BME280;32622;48.202;11.326;2023-05-19T13:03:07;1022.49;;;8.45;40.87
46886;BME280;32622;48.202;11.326;2023-05-19T13:05:10;1022.21;;;9.79;38.93
46886;BME280;32622;48.202;11.326;2023-05-19T13:07:13;1022.15;;;10.12;38.14
46886;BME280;32622;48.202;11.326;2023-05-19T13:09:16;1022.24;;;9.73;37.55
46886;BME280;32622;48.202;11.326;2023-05-19T13:11:22;1022.51;;;8.83;38.40
46886;BME280;32622;48.202;11.326;2023-05-19T13:13:25;1022.85;;;7.18;40.94
46886;BME280;32622;48.202;11.326;2023-05-19T13:15:30;1022.57;;;8.13;40.70
46886;BME280;32622;48.202;11.326;2023-05-19T13:19:56;1021.17;;;14.34;44.00
46886;BME280;32622;48.202;11.326;2023-05-19T13:21:59;1022.52;;;7.90;43.11
46886;BME280;32622;48.202;11.326;2023-05-19T13:24:05;1022.35;;;8.86;39.73
46886;BME280;32622;48.202;11.326;2023-05-19T13:26:09;1022.18;;;9.31;39.06
46886;BME280;32622;48.202;11.326;2023-05-19T13:28:14;1021.81;;;10.25;36.23
46886;BME280;32622;48.202;11.326;2023-05-19T13:30:18;1021.77;;;10.59;35.46
46886;BME280;32622;48.202;11.326;2023-05-19T13:32:21;1021.61;;;11.00;34.91
46886;BME280;32622;48.202;11.326;2023-05-19T13:34:26;1021.51;;;11.18;34.29
46886;BME280;32622;48.202;11.326;2023-05-19T13:39:55;1021.02;;;13.27;40.34
46886;BME280;32622;48.202;11.326;2023-05-19T13:41:57;1021.99;;;8.96;39.51
46886;BME280;32622;48.202;11.326;2023-05-19T13:44:00;1021.63;;;9.96;36.49
46886;BME280;32622;48.202;11.326;2023-05-19T13:46:04;1021.35;;;11.15;36.50
46886;BME280;32622;48.202;11.326;2023-05-19T13:48:07;1021.36;;;11.35;35.26
46886;BME280;32622;48.202;11.326;2023-05-19T13:50:10;1021.64;;;9.77;37.80
46886;BME280;32622;48.202;11.326;2023-05-19T13:52:13;1021.33;;;11.18;34.76
46886;BME280;32622;48.202;11.326;2023-05-19T13:54:16;1021.29;;;11.39;34.81
46886;BME280;32622;48.202;11.326;2023-05-19T13:56:19;1021.75;;;9.27;37.55
46886;BME280;32622;48.202;11.326;2023-05-19T13:58:23;1021.50;;;10.33;36.89
46886;BME280;32622;48.202;11.326;2023-05-19T14:00:26;1021.80;;;9.14;39.44
46886;BME280;32622;48.202;11.326;2023-05-19T14:02:29;1022.22;;;7.69;41.59
46886;BME280;32622;48.202;11.326;2023-05-19T14:04:32;1021.88;;;8.97;40.43
46886;BME280;32622;48.202;11.326;2023-05-19T14:06:38;1021.59;;;9.64;40.16
46886;BME280;32622;48.202;11.326;2023-05-19T14:08:41;1021.48;;;9.96;39.26
46886;BME280;32622;48.202;11.326;2023-05-19T14:10:45;1021.54;;;9.66;39.10
46886;BME280;32622;48.202;11.326;2023-05-19T14:12:49;1021.84;;;8.49;40.44
46886;BME280;32622;48.202;11.326;2023-05-19T14:14:51;1021.64;;;9.16;40.43
46886;BME280;32622;48.202;11.326;2023-05-19T14:16:55;1021.31;;;10.60;38.72
46886;BME280;32622;48.202;11.326;2023-05-19T14:18:58;1021.10;;;11.19;37.32
46886;BME280;32622;48.202;11.326;2023-05-19T14:21:01;1021.40;;;9.93;38.04
46886;BME280;32622;48.202;11.326;2023-05-19T14:23:04;1021.63;;;9.01;39.08
46886;BME280;32622;48.202;11.326;2023-05-19T14:25:07;1021.33;;;10.06;39.43
46886;BME280;32622;48.202;11.326;2023-05-19T14:27:10;1021.25;;;10.22;38.71
46886;BME280;32622;48.202;11.326;2023-05-19T14:29:13;1021.18;;;10.40;37.71
46886;BME280;32622;48.202;11.326;2023-05-19T14:31:16;1021.55;;;9.17;40.23
46886;BME280;32622;48.202;11.326;2023-05-19T14:33:20;1021.25;;;10.39;38.50
46886;BME280;32622;48.202;11.326;2023-05-19T14:35:23;1021.38;;;9.61;39.53
46886;BME280;32622;48.202;11.326;2023-05-19T14:37:26;1020.97;;;11.38;37.05
46886;BME280;32622;48.202;11.326;2023-05-19T14:39:29;1021.83;;;8.43;41.56
46886;BME280;32622;48.202;11.326;2023-05-19T14:41:32;1021.60;;;9.12;41.34